Little Rock, Iowa
Current Conditions -  °F | °C
As of 7:35 PM on Wednesday 22 Oct 2014 (Local Time) from KSHL Reporting Station
Light Rain Light Rain  
Wind Chill: 59°   Ceiling: 3600
Heat Index: 59°   Visibility: 4mi
Dew Point: 59°   Wind: 10mph
Humidity: 100%   Direction: 180°S
Pressure: 30"   Gusts: NA
Location:  43.44°N, 95.88°W
Report Text: KSHL 230035Z AUTO 18009KT 4SM -RA BKN036 BKN055 OVC075 15/15 A3000 RMK AO2
Loading
Personal Weather Stations






























Interactive Weather Map
Tropical Storm Tracking
New forecast layout! Learn more

10-Day Weather Forecast

Advertisements
Track Severe Weather on mobile